sensor_id;sensor_type;location;lat;lon;timestamp;temperature;humidity
1075;DHT22;526;51.392;12.448;2023-01-16T00:01:50;4.60;97.30
1075;DHT22;526;51.392;12.448;2023-01-16T00:04:16;4.60;97.30
1075;DHT22;526;51.392;12.448;2023-01-16T00:06:41;4.60;97.30
1075;DHT22;526;51.392;12.448;2023-01-16T00:09:07;4.50;97.30
1075;DHT22;526;51.392;12.448;2023-01-16T00:11:33;4.50;97.30
1075;DHT22;526;51.392;12.448;2023-01-16T00:13:58;4.50;97.30
1075;DHT22;526;51.392;12.448;2023-01-16T00:16:25;4.50;97.30
1075;DHT22;526;51.392;12.448;2023-01-16T00:18:50;4.50;97.30
1075;DHT22;526;51.392;12.448;2023-01-16T00:21:16;4.50;97.30
1075;DHT22;526;51.392;12.448;2023-01-16T00:23:42;4.50;97.30
1075;DHT22;526;51.392;12.448;2023-01-16T00:26:08;4.50;97.30
1075;DHT22;526;51.392;12.448;2023-01-16T00:28:35;4.50;97.30
1075;DHT22;526;51.392;12.448;2023-01-16T00:31:03;4.50;97.30
1075;DHT22;526;51.392;12.448;2023-01-16T00:33:30;4.60;97.30
1075;DHT22;526;51.392;12.448;2023-01-16T00:35:55;4.60;97.30
1075;DHT22;526;51.392;12.448;2023-01-16T00:38:21;4.60;97.30
1075;DHT22;526;51.392;12.448;2023-01-16T00:40:46;4.60;97.30
1075;DHT22;526;51.392;12.448;2023-01-16T00:43:12;4.60;97.30
1075;DHT22;526;51.392;12.448;2023-01-16T00:45:37;4.70;97.30
1075;DHT22;526;51.392;12.448;2023-01-16T00:48:05;4.70;97.30
1075;DHT22;526;51.392;12.448;2023-01-16T00:50:30;4.70;97.30
1075;DHT22;526;51.392;12.448;2023-01-16T00:52:56;4.70;97.30
1075;DHT22;526;51.392;12.448;2023-01-16T00:55:21;4.70;97.30
1075;DHT22;526;51.392;12.448;2023-01-16T00:57:47;4.70;97.30
1075;DHT22;526;51.392;12.448;2023-01-16T01:00:12;4.70;97.30
1075;DHT22;526;51.392;12.448;2023-01-16T01:02:38;4.70;97.30
1075;DHT22;526;51.392;12.448;2023-01-16T01:05:04;4.70;97.30
1075;DHT22;526;51.392;12.448;2023-01-16T01:07:31;4.70;97.30
1075;DHT22;526;51.392;12.448;2023-01-16T01:09:57;4.70;97.30
1075;DHT22;526;51.392;12.448;2023-01-16T01:12:22;4.70;97.30
1075;DHT22;526;51.392;12.448;2023-01-16T01:14:48;4.70;97.30
1075;DHT22;526;51.392;12.448;2023-01-16T01:17:14;4.70;97.30
1075;DHT22;526;51.392;12.448;2023-01-16T01:19:40;4.70;97.30
1075;DHT22;526;51.392;12.448;2023-01-16T01:22:05;4.70;97.30
1075;DHT22;526;51.392;12.448;2023-01-16T01:24:31;4.70;97.30
1075;DHT22;526;51.392;12.448;2023-01-16T01:26:56;4.80;97.30
1075;DHT22;526;51.392;12.448;2023-01-16T01:29:22;4.80;97.30
1075;DHT22;526;51.392;12.448;2023-01-16T01:31:47;4.80;97.30
1075;DHT22;526;51.392;12.448;2023-01-16T01:34:13;4.80;97.30
1075;DHT22;526;51.392;12.448;2023-01-16T01:36:38;4.80;97.30
1075;DHT22;526;51.392;12.448;2023-01-16T01:39:04;4.80;97.30
1075;DHT22;526;51.392;12.448;2023-01-16T01:41:29;4.80;97.30
1075;DHT22;526;51.392;12.448;2023-01-16T01:43:55;4.80;97.30
1075;DHT22;526;51.392;12.448;2023-01-16T01:48:57;4.70;97.30
1075;DHT22;526;51.392;12.448;2023-01-16T01:51:34;4.70;97.30
1075;DHT22;526;51.392;12.448;2023-01-16T01:54:05;4.70;97.30
1075;DHT22;526;51.392;12.448;2023-01-16T01:59:43;4.70;97.30
1075;DHT22;526;51.392;12.448;2023-01-16T02:02:13;4.60;97.30
1075;DHT22;526;51.392;12.448;2023-01-16T02:04:42;4.60;97.30
1075;DHT22;526;51.392;12.448;2023-01-16T02:07:09;4.50;97.30
1075;DHT22;526;51.392;12.448;2023-01-16T02:09:37;4.40;97.30
1075;DHT22;526;51.392;12.448;2023-01-16T02:12:07;4.40;97.30
1075;DHT22;526;51.392;12.448;2023-01-16T02:14:37;4.30;97.30
1075;DHT22;526;51.392;12.448;2023-01-16T02:17:06;4.30;97.30
1075;DHT22;526;51.392;12.448;2023-01-16T02:31:18;4.00;97.30
1075;DHT22;526;51.392;12.448;2023-01-16T02:33:58;4.00;97.30
1075;DHT22;526;51.392;12.448;2023-01-16T02:47:15;3.80;97.30
1075;DHT22;526;51.392;12.448;2023-01-16T02:52:43;3.70;97.30
1075;DHT22;526;51.392;12.448;2023-01-16T02:55:23;3.60;97.30
1075;DHT22;526;51.392;12.448;2023-01-16T02:57:56;3.60;97.30
1075;DHT22;526;51.392;12.448;2023-01-16T03:00:23;3.60;97.30
1075;DHT22;526;51.392;12.448;2023-01-16T03:02:48;3.50;97.30
1075;DHT22;526;51.392;12.448;2023-01-16T03:05:14;3.50;97.30
1075;DHT22;526;51.392;12.448;2023-01-16T03:10:56;3.50;97.30
1075;DHT22;526;51.392;12.448;2023-01-16T03:13:41;3.40;97.30
1075;DHT22;526;51.392;12.448;2023-01-16T03:16:34;3.40;97.30
1075;DHT22;526;51.392;12.448;2023-01-16T03:19:25;3.40;97.30
1075;DHT22;526;51.392;12.448;2023-01-16T03:32:54;3.10;97.30
1075;DHT22;526;51.392;12.448;2023-01-16T03:35:48;3.10;97.30
1075;DHT22;526;51.392;12.448;2023-01-16T03:38:15;3.10;97.30
1075;DHT22;526;51.392;12.448;2023-01-16T03:40:44;3.00;97.30
1075;DHT22;526;51.392;12.448;2023-01-16T03:43:27;3.00;97.30
1075;DHT22;526;51.392;12.448;2023-01-16T03:46:11;3.00;97.30
1075;DHT22;526;51.392;12.448;2023-01-16T03:49:07;3.00;97.30
1075;DHT22;526;51.392;12.448;2023-01-16T03:51:39;3.00;97.30
1075;DHT22;526;51.392;12.448;2023-01-16T03:54:32;3.00;97.30
1075;DHT22;526;51.392;12.448;2023-01-16T03:57:16;3.00;97.30
1075;DHT22;526;51.392;12.448;2023-01-16T03:59:45;3.00;97.30
1075;DHT22;526;51.392;12.448;2023-01-16T04:02:22;3.00;97.30
1075;DHT22;526;51.392;12.448;2023-01-16T04:05:03;3.10;97.30
1075;DHT22;526;51.392;12.448;2023-01-16T04:07:42;3.00;97.30
1075;DHT22;526;51.392;12.448;2023-01-16T04:13:21;3.00;97.30
1075;DHT22;526;51.392;12.448;2023-01-16T04:15:51;3.00;97.30
1075;DHT22;526;51.392;12.448;2023-01-16T04:18:20;3.00;97.30
1075;DHT22;526;51.392;12.448;2023-01-16T04:20:48;2.90;97.30
1075;DHT22;526;51.392;12.448;2023-01-16T04:23:15;2.90;97.30
1075;DHT22;526;51.392;12.448;2023-01-16T04:25:42;2.80;97.30
1075;DHT22;526;51.392;12.448;2023-01-16T04:28:07;2.80;97.30
1075;DHT22;526;51.392;12.448;2023-01-16T04:30:32;2.80;97.30
1075;DHT22;526;51.392;12.448;2023-01-16T04:33:01;2.80;97.30
1075;DHT22;526;51.392;12.448;2023-01-16T04:35:27;2.80;97.30
1075;DHT22;526;51.392;12.448;2023-01-16T04:37:52;2.90;97.30
1075;DHT22;526;51.392;12.448;2023-01-16T04:40:18;2.90;97.30
1075;DHT22;526;51.392;12.448;2023-01-16T04:42:44;2.90;97.30
1075;DHT22;526;51.392;12.448;2023-01-16T04:45:09;3.00;97.30
1075;DHT22;526;51.392;12.448;2023-01-16T04:47:35;3.00;97.30
1075;DHT22;526;51.392;12.448;2023-01-16T04:50:01;3.10;97.30
1075;DHT22;526;51.392;12.448;2023-01-16T04:52:26;3.10;97.30
1075;DHT22;526;51.392;12.448;2023-01-16T04:54:52;3.20;97.30
1075;DHT22;526;51.392;12.448;2023-01-16T04:57:17;3.20;97.30
1075;DHT22;526;51.392;12.448;2023-01-16T04:59:43;3.30;97.30
1075;DHT22;526;51.392;12.448;2023-01-16T05:02:09;3.40;97.30
1075;DHT22;526;51.392;12.448;2023-01-16T05:04:34;3.40;97.30
1075;DHT22;526;51.392;12.448;2023-01-16T05:07:00;3.40;97.30
1075;DHT22;526;51.392;12.448;2023-01-16T05:09:25;3.50;97.30
1075;DHT22;526;51.392;12.448;2023-01-16T05:11:51;3.50;97.30
1075;DHT22;526;51.392;12.448;2023-01-16T05:14:16;3.50;97.30
1075;DHT22;526;51.392;12.448;2023-01-16T05:16:42;3.50;97.30
1075;DHT22;526;51.392;12.448;2023-01-16T05:19:08;3.50;97.30
1075;DHT22;526;51.392;12.448;2023-01-16T05:21:33;3.50;97.30
1075;DHT22;526;51.392;12.448;2023-01-16T05:23:59;3.50;97.30
1075;DHT22;526;51.392;12.448;2023-01-16T05:26:24;3.50;97.30
1075;DHT22;526;51.392;12.448;2023-01-16T05:28:50;3.50;97.30
1075;DHT22;526;51.392;12.448;2023-01-16T05:31:16;3.50;97.30
1075;DHT22;526;51.392;12.448;2023-01-16T05:33:42;3.50;97.30
1075;DHT22;526;51.392;12.448;2023-01-16T05:36:07;3.60;97.30
1075;DHT22;526;51.392;12.448;2023-01-16T05:38:33;3.60;97.30
1075;DHT22;526;51.392;12.448;2023-01-16T05:40:59;3.60;97.30
1075;DHT22;526;51.392;12.448;2023-01-16T05:43:25;3.60;97.30
1075;DHT22;526;51.392;12.448;2023-01-16T05:45:50;3.60;97.30
1075;DHT22;526;51.392;12.448;2023-01-16T05:48:16;3.60;97.30
1075;DHT22;526;51.392;12.448;2023-01-16T05:50:41;3.60;97.30
1075;DHT22;526;51.392;12.448;2023-01-16T05:53:07;3.60;97.30
1075;DHT22;526;51.392;12.448;2023-01-16T05:55:43;3.60;97.30
1075;DHT22;526;51.392;12.448;2023-01-16T05:58:10;3.60;97.30
1075;DHT22;526;51.392;12.448;2023-01-16T06:00:48;3.60;97.30
1075;DHT22;526;51.392;12.448;2023-01-16T06:03:13;3.60;97.30
1075;DHT22;526;51.392;12.448;2023-01-16T06:05:41;3.60;97.30
1075;DHT22;526;51.392;12.448;2023-01-16T06:08:07;3.60;97.30
1075;DHT22;526;51.392;12.448;2023-01-16T06:10:32;3.60;97.30
1075;DHT22;526;51.392;12.448;2023-01-16T06:12:59;3.60;97.30
1075;DHT22;526;51.392;12.448;2023-01-16T06:15:25;3.60;97.30
1075;DHT22;526;51.392;12.448;2023-01-16T06:17:50;3.60;97.30
1075;DHT22;526;51.392;12.448;2023-01-16T06:20:17;3.60;97.30
1075;DHT22;526;51.392;12.448;2023-01-16T06:22:43;3.60;97.30
1075;DHT22;526;51.392;12.448;2023-01-16T06:25:09;3.50;97.30
1075;DHT22;526;51.392;12.448;2023-01-16T06:27:35;3.50;97.30
1075;DHT22;526;51.392;12.448;2023-01-16T06:30:00;3.50;97.30
1075;DHT22;526;51.392;12.448;2023-01-16T06:32:26;3.50;97.30
1075;DHT22;526;51.392;12.448;2023-01-16T06:34:51;3.50;97.30
1075;DHT22;526;51.392;12.448;2023-01-16T06:37:17;3.50;97.30
1075;DHT22;526;51.392;12.448;2023-01-16T06:39:42;3.40;97.30
1075;DHT22;526;51.392;12.448;2023-01-16T06:42:08;3.40;97.30
1075;DHT22;526;51.392;12.448;2023-01-16T06:44:34;3.40;97.30
1075;DHT22;526;51.392;12.448;2023-01-16T06:47:01;3.40;97.30
1075;DHT22;526;51.392;12.448;2023-01-16T06:49:27;3.40;97.30
1075;DHT22;526;51.392;12.448;2023-01-16T06:51:52;3.40;97.30
1075;DHT22;526;51.392;12.448;2023-01-16T06:54:18;3.50;97.30
1075;DHT22;526;51.392;12.448;2023-01-16T06:56:43;3.50;97.30
1075;DHT22;526;51.392;12.448;2023-01-16T06:59:09;3.50;97.30
1075;DHT22;526;51.392;12.448;2023-01-16T07:01:34;3.50;97.30
1075;DHT22;526;51.392;12.448;2023-01-16T07:04:00;3.60;97.30
1075;DHT22;526;51.392;12.448;2023-01-16T07:06:26;3.60;97.30
1075;DHT22;526;51.392;12.448;2023-01-16T07:08:51;3.60;97.30
1075;DHT22;526;51.392;12.448;2023-01-16T07:11:18;3.60;97.30
1075;DHT22;526;51.392;12.448;2023-01-16T07:13:44;3.60;97.30
1075;DHT22;526;51.392;12.448;2023-01-16T07:16:14;3.60;97.30
1075;DHT22;526;51.392;12.448;2023-01-16T07:18:59;3.60;97.30
1075;DHT22;526;51.392;12.448;2023-01-16T07:21:46;3.60;97.30
1075;DHT22;526;51.392;12.448;2023-01-16T07:24:34;3.60;97.30
1075;DHT22;526;51.392;12.448;2023-01-16T07:27:04;3.60;97.30
1075;DHT22;526;51.392;12.448;2023-01-16T07:29:32;3.60;97.30
1075;DHT22;526;51.392;12.448;2023-01-16T07:31:59;3.60;97.30
1075;DHT22;526;51.392;12.448;2023-01-16T07:34:26;3.60;97.30
1075;DHT22;526;51.392;12.448;2023-01-16T07:36:51;3.60;97.30
1075;DHT22;526;51.392;12.448;2023-01-16T07:39:17;3.60;97.30
1075;DHT22;526;51.392;12.448;2023-01-16T07:41:42;3.60;97.30
1075;DHT22;526;51.392;12.448;2023-01-16T07:44:09;3.60;97.30
1075;DHT22;526;51.392;12.448;2023-01-16T07:46:35;3.60;97.30
1075;DHT22;526;51.392;12.448;2023-01-16T07:49:00;3.60;97.30
1075;DHT22;526;51.392;12.448;2023-01-16T07:51:26;3.60;97.30
1075;DHT22;526;51.392;12.448;2023-01-16T07:53:51;3.50;97.30
1075;DHT22;526;51.392;12.448;2023-01-16T07:56:17;3.50;97.30
1075;DHT22;526;51.392;12.448;2023-01-16T07:58:42;3.50;97.30
1075;DHT22;526;51.392;12.448;2023-01-16T08:01:09;3.60;97.30
1075;DHT22;526;51.392;12.448;2023-01-16T08:03:35;3.60;97.30
1075;DHT22;526;51.392;12.448;2023-01-16T08:06:01;3.70;97.30
1075;DHT22;526;51.392;12.448;2023-01-16T08:08:27;3.80;97.30
1075;DHT22;526;51.392;12.448;2023-01-16T08:10:58;3.80;97.30
1075;DHT22;526;51.392;12.448;2023-01-16T08:13:25;3.90;97.30
1075;DHT22;526;51.392;12.448;2023-01-16T08:15:51;3.90;97.30
1075;DHT22;526;51.392;12.448;2023-01-16T08:18:17;3.90;97.30
1075;DHT22;526;51.392;12.448;2023-01-16T08:20:44;4.00;97.30
1075;DHT22;526;51.392;12.448;2023-01-16T08:23:10;4.00;97.30
1075;DHT22;526;51.392;12.448;2023-01-16T08:25:36;4.10;97.30
1075;DHT22;526;51.392;12.448;2023-01-16T08:28:02;4.20;97.30
1075;DHT22;526;51.392;12.448;2023-01-16T08:30:28;4.20;97.30
1075;DHT22;526;51.392;12.448;2023-01-16T08:32:57;4.30;97.30
1075;DHT22;526;51.392;12.448;2023-01-16T08:35:23;4.40;97.30
1075;DHT22;526;51.392;12.448;2023-01-16T08:37:49;4.40;97.30
1075;DHT22;526;51.392;12.448;2023-01-16T08:40:15;4.50;97.30
1075;DHT22;526;51.392;12.448;2023-01-16T08:42:41;4.60;97.30
1075;DHT22;526;51.392;12.448;2023-01-16T08:45:25;4.70;97.30
1075;DHT22;526;51.392;12.448;2023-01-16T08:48:09;4.70;97.30
1075;DHT22;526;51.392;12.448;2023-01-16T08:50:54;4.80;97.30
1075;DHT22;526;51.392;12.448;2023-01-16T08:53:40;4.90;97.30
1075;DHT22;526;51.392;12.448;2023-01-16T08:56:06;4.90;97.30
1075;DHT22;526;51.392;12.448;2023-01-16T08:58:31;5.00;97.30
1075;DHT22;526;51.392;12.448;2023-01-16T09:00:57;5.10;97.30
1075;DHT22;526;51.392;12.448;2023-01-16T09:03:23;5.10;97.30
1075;DHT22;526;51.392;12.448;2023-01-16T09:05:48;5.20;97.30
1075;DHT22;526;51.392;12.448;2023-01-16T09:08:13;5.20;97.30
1075;DHT22;526;51.392;12.448;2023-01-16T09:10:39;5.20;97.30
1075;DHT22;526;51.392;12.448;2023-01-16T09:13:04;5.30;97.30
1075;DHT22;526;51.392;12.448;2023-01-16T09:15:49;5.30;97.30
1075;DHT22;526;51.392;12.448;2023-01-16T09:18:15;5.40;97.20
1075;DHT22;526;51.392;12.448;2023-01-16T09:20:40;5.40;97.20
1075;DHT22;526;51.392;12.448;2023-01-16T09:23:06;5.40;97.20
1075;DHT22;526;51.392;12.448;2023-01-16T09:25:32;5.50;96.80
1075;DHT22;526;51.392;12.448;2023-01-16T09:27:59;5.50;96.70
1075;DHT22;526;51.392;12.448;2023-01-16T09:30:26;5.50;96.60
1075;DHT22;526;51.392;12.448;2023-01-16T09:32:51;5.60;96.60
1075;DHT22;526;51.392;12.448;2023-01-16T09:35:17;5.60;96.50
1075;DHT22;526;51.392;12.448;2023-01-16T09:37:44;5.70;96.50
1075;DHT22;526;51.392;12.448;2023-01-16T09:40:15;5.80;96.60
1075;DHT22;526;51.392;12.448;2023-01-16T09:45:32;5.90;96.30
1075;DHT22;526;51.392;12.448;2023-01-16T09:48:11;5.90;96.20
1075;DHT22;526;51.392;12.448;2023-01-16T09:50:44;5.90;95.90
1075;DHT22;526;51.392;12.448;2023-01-16T09:53:19;6.00;96.10
1075;DHT22;526;51.392;12.448;2023-01-16T09:56:04;6.10;95.80
1075;DHT22;526;51.392;12.448;2023-01-16T09:59:03;6.10;95.40
1075;DHT22;526;51.392;12.448;2023-01-16T10:01:42;6.10;95.40
1075;DHT22;526;51.392;12.448;2023-01-16T10:04:15;6.20;95.60
1075;DHT22;526;51.392;12.448;2023-01-16T10:12:34;6.40;94.60
1075;DHT22;526;51.392;12.448;2023-01-16T10:23:43;6.70;94.30
1075;DHT22;526;51.392;12.448;2023-01-16T10:26:24;6.80;94.10
1075;DHT22;526;51.392;12.448;2023-01-16T10:29:19;6.90;93.50
1075;DHT22;526;51.392;12.448;2023-01-16T10:31:55;6.90;93.20
1075;DHT22;526;51.392;12.448;2023-01-16T10:34:26;7.00;93.10
1075;DHT22;526;51.392;12.448;2023-01-16T10:36:55;7.20;93.50
1075;DHT22;526;51.392;12.448;2023-01-16T10:39:32;7.20;92.50
1075;DHT22;526;51.392;12.448;2023-01-16T10:42:11;7.30;92.80
1075;DHT22;526;51.392;12.448;2023-01-16T10:45:17;7.30;92.30
1075;DHT22;526;51.392;12.448;2023-01-16T10:48:04;7.30;91.90
1075;DHT22;526;51.392;12.448;2023-01-16T10:50:48;7.20;92.10
1075;DHT22;526;51.392;12.448;2023-01-16T10:53:14;7.30;92.50
1075;DHT22;526;51.392;12.448;2023-01-16T10:55:42;7.40;92.30
1075;DHT22;526;51.392;12.448;2023-01-16T10:58:19;7.40;91.90
1075;DHT22;526;51.392;12.448;2023-01-16T11:00:46;7.40;91.50
1075;DHT22;526;51.392;12.448;2023-01-16T11:03:19;7.40;91.80
1075;DHT22;526;51.392;12.448;2023-01-16T11:05:44;7.40;91.70
1075;DHT22;526;51.392;12.448;2023-01-16T11:08:19;7.50;91.70
1075;DHT22;526;51.392;12.448;2023-01-16T11:10:48;7.70;91.00
1075;DHT22;526;51.392;12.448;2023-01-16T11:13:20;7.70;90.50
1075;DHT22;526;51.392;12.448;2023-01-16T11:16:19;7.80;91.00
1075;DHT22;526;51.392;12.448;2023-01-16T11:19:21;7.90;90.70
1075;DHT22;526;51.392;12.448;2023-01-16T11:21:53;7.80;90.60
1075;DHT22;526;51.392;12.448;2023-01-16T11:24:22;7.80;91.10
1075;DHT22;526;51.392;12.448;2023-01-16T11:26:53;7.90;90.80
1075;DHT22;526;51.392;12.448;2023-01-16T11:29:21;8.00;90.40
1075;DHT22;526;51.392;12.448;2023-01-16T11:31:55;8.10;90.00
1075;DHT22;526;51.392;12.448;2023-01-16T11:34:22;8.00;90.00
1075;DHT22;526;51.392;12.448;2023-01-16T11:36:57;7.90;90.00
1075;DHT22;526;51.392;12.448;2023-01-16T11:39:27;7.90;90.00
1075;DHT22;526;51.392;12.448;2023-01-16T11:41:56;8.00;90.30
1075;DHT22;526;51.392;12.448;2023-01-16T11:44:32;8.10;90.10
1075;DHT22;526;51.392;12.448;2023-01-16T11:47:21;8.20;89.50
1075;DHT22;526;51.392;12.448;2023-01-16T11:49:51;8.20;89.60
1075;DHT22;526;51.392;12.448;2023-01-16T11:52:20;8.30;89.80
1075;DHT22;526;51.392;12.448;2023-01-16T11:55:04;8.50;89.40
1075;DHT22;526;51.392;12.448;2023-01-16T12:00:28;8.30;88.40
1075;DHT22;526;51.392;12.448;2023-01-16T12:06:01;8.40;88.30
1075;DHT22;526;51.392;12.448;2023-01-16T12:08:56;8.40;86.80
1075;DHT22;526;51.392;12.448;2023-01-16T12:14:30;8.40;87.20
1075;DHT22;526;51.392;12.448;2023-01-16T12:17:26;8.30;86.80
1075;DHT22;526;51.392;12.448;2023-01-16T12:20:16;8.20;87.20
1075;DHT22;526;51.392;12.448;2023-01-16T12:25:58;8.10;87.70
1075;DHT22;526;51.392;12.448;2023-01-16T12:33:59;8.30;87.30
1075;DHT22;526;51.392;12.448;2023-01-16T12:36:47;8.50;87.80
1075;DHT22;526;51.392;12.448;2023-01-16T12:39:44;8.40;86.80
1075;DHT22;526;51.392;12.448;2023-01-16T12:45:44;8.10;87.90
1075;DHT22;526;51.392;12.448;2023-01-16T12:48:42;7.90;88.20
1075;DHT22;526;51.392;12.448;2023-01-16T12:51:26;7.80;88.80
1075;DHT22;526;51.392;12.448;2023-01-16T12:54:03;7.70;89.20
1075;DHT22;526;51.392;12.448;2023-01-16T12:57:04;7.80;89.00
1075;DHT22;526;51.392;12.448;2023-01-16T12:59:53;7.90;88.90
1075;DHT22;526;51.392;12.448;2023-01-16T13:02:34;7.90;89.10
1075;DHT22;526;51.392;12.448;2023-01-16T13:05:10;7.90;88.40
1075;DHT22;526;51.392;12.448;2023-01-16T13:07:54;7.90;89.10
1075;DHT22;526;51.392;12.448;2023-01-16T13:10:31;7.80;89.00
1075;DHT22;526;51.392;12.448;2023-01-16T13:13:27;7.90;89.60
1075;DHT22;526;51.392;12.448;2023-01-16T13:18:54;7.70;89.00
1075;DHT22;526;51.392;12.448;2023-01-16T13:21:26;7.60;89.00
1075;DHT22;526;51.392;12.448;2023-01-16T13:23:56;7.50;90.10
1075;DHT22;526;51.392;12.448;2023-01-16T13:26:24;7.50;90.40
1075;DHT22;526;51.392;12.448;2023-01-16T13:29:27;7.50;90.70
1075;DHT22;526;51.392;12.448;2023-01-16T13:31:56;7.40;91.10
1075;DHT22;526;51.392;12.448;2023-01-16T13:34:29;7.30;91.60
1075;DHT22;526;51.392;12.448;2023-01-16T13:37:18;7.30;92.00
1075;DHT22;526;51.392;12.448;2023-01-16T13:42:40;7.10;92.30
1075;DHT22;526;51.392;12.448;2023-01-16T13:45:37;7.10;92.50
1075;DHT22;526;51.392;12.448;2023-01-16T13:48:26;7.10;92.60
1075;DHT22;526;51.392;12.448;2023-01-16T13:51:01;7.10;92.90
1075;DHT22;526;51.392;12.448;2023-01-16T13:53:31;7.00;92.70
1075;DHT22;526;51.392;12.448;2023-01-16T13:56:18;7.00;92.50
1075;DHT22;526;51.392;12.448;2023-01-16T13:59:03;7.00;92.30
1075;DHT22;526;51.392;12.448;2023-01-16T14:06:54;6.90;92.30
1075;DHT22;526;51.392;12.448;2023-01-16T14:12:44;6.90;92.70
1075;DHT22;526;51.392;12.448;2023-01-16T14:18:42;6.80;92.80
1075;DHT22;526;51.392;12.448;2023-01-16T14:24:20;6.80;93.20
1075;DHT22;526;51.392;12.448;2023-01-16T14:26:57;6.80;93.40
1075;DHT22;526;51.392;12.448;2023-01-16T14:29:34;6.80;93.30
1075;DHT22;526;51.392;12.448;2023-01-16T14:35:03;6.80;93.60
1075;DHT22;526;51.392;12.448;2023-01-16T14:37:52;6.70;93.60
1075;DHT22;526;51.392;12.448;2023-01-16T14:40:38;6.70;93.80
1075;DHT22;526;51.392;12.448;2023-01-16T14:43:32;6.70;94.10
1075;DHT22;526;51.392;12.448;2023-01-16T14:49:43;6.60;94.00
1075;DHT22;526;51.392;12.448;2023-01-16T14:55:28;6.50;94.20
1075;DHT22;526;51.392;12.448;2023-01-16T14:58:03;6.50;94.50
1075;DHT22;526;51.392;12.448;2023-01-16T15:00:29;6.40;94.50
1075;DHT22;526;51.392;12.448;2023-01-16T15:03:04;6.40;94.60
1075;DHT22;526;51.392;12.448;2023-01-16T15:05:55;6.40;94.90
1075;DHT22;526;51.392;12.448;2023-01-16T15:08:33;6.40;95.00
1075;DHT22;526;51.392;12.448;2023-01-16T15:11:22;6.30;95.10
1075;DHT22;526;51.392;12.448;2023-01-16T15:14:15;6.30;95.10
1075;DHT22;526;51.392;12.448;2023-01-16T15:17:30;6.30;95.30
1075;DHT22;526;51.392;12.448;2023-01-16T15:20:24;6.30;95.50
1075;DHT22;526;51.392;12.448;2023-01-16T15:23:32;6.20;95.20
1075;DHT22;526;51.392;12.448;2023-01-16T15:34:01;6.10;94.60
1075;DHT22;526;51.392;12.448;2023-01-16T15:39:17;6.00;94.40
1075;DHT22;526;51.392;12.448;2023-01-16T15:42:01;6.00;94.70
1075;DHT22;526;51.392;12.448;2023-01-16T15:44:47;6.00;94.40
1075;DHT22;526;51.392;12.448;2023-01-16T15:50:25;6.00;94.80
1075;DHT22;526;51.392;12.448;2023-01-16T15:52:52;6.00;94.90
1075;DHT22;526;51.392;12.448;2023-01-16T15:55:26;6.00;95.00
1075;DHT22;526;51.392;12.448;2023-01-16T15:57:55;6.00;95.20
1075;DHT22;526;51.392;12.448;2023-01-16T16:00:37;6.00;95.20
1075;DHT22;526;51.392;12.448;2023-01-16T16:03:20;6.00;95.30
1075;DHT22;526;51.392;12.448;2023-01-16T16:06:03;5.90;95.20
1075;DHT22;526;51.392;12.448;2023-01-16T16:08:34;5.90;95.50
1075;DHT22;526;51.392;12.448;2023-01-16T16:11:04;5.90;95.40
1075;DHT22;526;51.392;12.448;2023-01-16T16:13:49;5.80;95.60
1075;DHT22;526;51.392;12.448;2023-01-16T16:16:16;5.80;95.70
1075;DHT22;526;51.392;12.448;2023-01-16T16:19:01;5.70;95.80
1075;DHT22;526;51.392;12.448;2023-01-16T16:24:12;5.60;96.20
1075;DHT22;526;51.392;12.448;2023-01-16T16:26:43;5.60;96.40
1075;DHT22;526;51.392;12.448;2023-01-16T16:29:18;5.60;96.10
1075;DHT22;526;51.392;12.448;2023-01-16T16:31:44;5.60;95.50
1075;DHT22;526;51.392;12.448;2023-01-16T16:34:17;5.70;95.10
1075;DHT22;526;51.392;12.448;2023-01-16T16:36:47;5.70;94.80
1075;DHT22;526;51.392;12.448;2023-01-16T16:39:42;5.80;94.70
1075;DHT22;526;51.392;12.448;2023-01-16T16:47:40;5.80;94.70
1075;DHT22;526;51.392;12.448;2023-01-16T16:53:09;5.80;94.80
1075;DHT22;526;51.392;12.448;2023-01-16T16:55:38;5.80;94.70
1075;DHT22;526;51.392;12.448;2023-01-16T16:58:11;5.70;94.80
1075;DHT22;526;51.392;12.448;2023-01-16T17:00:38;5.80;94.30
1075;DHT22;526;51.392;12.448;2023-01-16T17:03:25;5.80;93.90
1075;DHT22;526;51.392;12.448;2023-01-16T17:05:52;5.80;93.90
1075;DHT22;526;51.392;12.448;2023-01-16T17:08:21;5.80;93.20
1075;DHT22;526;51.392;12.448;2023-01-16T17:22:35;5.80;93.20
1075;DHT22;526;51.392;12.448;2023-01-16T17:25:01;5.80;92.90
1075;DHT22;526;51.392;12.448;2023-01-16T17:27:27;5.90;92.60
1075;DHT22;526;51.392;12.448;2023-01-16T17:29:52;5.90;92.60
1075;DHT22;526;51.392;12.448;2023-01-16T17:32:26;5.90;92.80
1075;DHT22;526;51.392;12.448;2023-01-16T17:34:55;5.90;92.60
1075;DHT22;526;51.392;12.448;2023-01-16T17:37:21;5.80;92.60
1075;DHT22;526;51.392;12.448;2023-01-16T17:39:46;5.80;92.60
1075;DHT22;526;51.392;12.448;2023-01-16T17:42:12;5.80;92.50
1075;DHT22;526;51.392;12.448;2023-01-16T17:44:40;5.80;92.20
1075;DHT22;526;51.392;12.448;2023-01-16T17:47:25;5.90;92.10
1075;DHT22;526;51.392;12.448;2023-01-16T17:49:52;5.80;92.30
1075;DHT22;526;51.392;12.448;2023-01-16T17:52:36;5.80;92.30
1075;DHT22;526;51.392;12.448;2023-01-16T17:55:02;5.90;92.00
1075;DHT22;526;51.392;12.448;2023-01-16T18:02:50;5.80;92.00
1075;DHT22;526;51.392;12.448;2023-01-16T18:05:16;5.80;92.10
1075;DHT22;526;51.392;12.448;2023-01-16T18:07:41;5.80;92.20
1075;DHT22;526;51.392;12.448;2023-01-16T18:10:07;5.80;92.10
1075;DHT22;526;51.392;12.448;2023-01-16T18:12:33;5.80;92.20
1075;DHT22;526;51.392;12.448;2023-01-16T18:15:17;5.70;92.40
1075;DHT22;526;51.392;12.448;2023-01-16T18:18:01;5.70;92.20
1075;DHT22;526;51.392;12.448;2023-01-16T18:20:26;5.70;92.50
1075;DHT22;526;51.392;12.448;2023-01-16T18:22:52;5.60;92.20
1075;DHT22;526;51.392;12.448;2023-01-16T18:25:23;5.60;92.10
1075;DHT22;526;51.392;12.448;2023-01-16T18:27:57;5.60;91.90
1075;DHT22;526;51.392;12.448;2023-01-16T18:30:23;5.60;91.90
1075;DHT22;526;51.392;12.448;2023-01-16T18:33:08;5.60;91.80
1075;DHT22;526;51.392;12.448;2023-01-16T18:35:59;5.60;91.80
1075;DHT22;526;51.392;12.448;2023-01-16T18:38:25;5.60;91.90
1075;DHT22;526;51.392;12.448;2023-01-16T18:41:09;5.60;91.90
1075;DHT22;526;51.392;12.448;2023-01-16T18:43:54;5.60;91.90
1075;DHT22;526;51.392;12.448;2023-01-16T18:46:38;5.60;91.80
1075;DHT22;526;51.392;12.448;2023-01-16T18:49:22;5.60;91.60
1075;DHT22;526;51.392;12.448;2023-01-16T18:52:13;5.60;91.60
1075;DHT22;526;51.392;12.448;2023-01-16T18:54:58;5.70;91.30
1075;DHT22;526;51.392;12.448;2023-01-16T18:57:43;5.80;91.40
1075;DHT22;526;51.392;12.448;2023-01-16T19:00:27;5.80;91.50
1075;DHT22;526;51.392;12.448;2023-01-16T19:03:11;5.80;91.30
1075;DHT22;526;51.392;12.448;2023-01-16T19:05:37;5.80;91.20
1075;DHT22;526;51.392;12.448;2023-01-16T19:08:04;5.80;91.00
1075;DHT22;526;51.392;12.448;2023-01-16T19:10:32;5.90;90.70
1075;DHT22;526;51.392;12.448;2023-01-16T19:12:59;5.90;90.90
1075;DHT22;526;51.392;12.448;2023-01-16T19:15:25;5.90;90.80
1075;DHT22;526;51.392;12.448;2023-01-16T19:17:51;5.90;91.00
1075;DHT22;526;51.392;12.448;2023-01-16T19:20:20;6.00;90.70
1075;DHT22;526;51.392;12.448;2023-01-16T19:22:47;6.00;90.70
1075;DHT22;526;51.392;12.448;2023-01-16T19:25:13;6.00;90.80
1075;DHT22;526;51.392;12.448;2023-01-16T19:27:39;6.00;90.80
1075;DHT22;526;51.392;12.448;2023-01-16T19:30:05;6.00;90.90